sensor_id;sensor_type;location;lat;lon;timestamp;temperature;humidity
18906;DHT22;9585;51.018;4.282;2023-07-31T00:00:43;15.50;99.90
18906;DHT22;9585;51.018;4.282;2023-07-31T00:03:21;15.60;99.90
18906;DHT22;9585;51.018;4.282;2023-07-31T00:05:49;15.60;99.90
18906;DHT22;9585;51.018;4.282;2023-07-31T00:08:20;15.50;99.90
18906;DHT22;9585;51.018;4.282;2023-07-31T00:11:09;15.60;99.90
18906;DHT22;9585;51.018;4.282;2023-07-31T00:13:37;15.60;99.90
18906;DHT22;9585;51.018;4.282;2023-07-31T00:16:09;15.50;99.90
18906;DHT22;9585;51.018;4.282;2023-07-31T00:18:37;15.50;99.90
18906;DHT22;9585;51.018;4.282;2023-07-31T00:21:17;15.60;99.90
18906;DHT22;9585;51.018;4.282;2023-07-31T00:23:45;15.50;99.90
18906;DHT22;9585;51.018;4.282;2023-07-31T00:26:13;15.50;99.90
18906;DHT22;9585;51.018;4.282;2023-07-31T00:28:46;15.60;99.90
18906;DHT22;9585;51.018;4.282;2023-07-31T00:31:15;15.60;99.90
18906;DHT22;9585;51.018;4.282;2023-07-31T00:33:44;15.60;99.90
18906;DHT22;9585;51.018;4.282;2023-07-31T00:36:12;15.60;99.90
18906;DHT22;9585;51.018;4.282;2023-07-31T00:38:54;15.60;99.90
18906;DHT22;9585;51.018;4.282;2023-07-31T00:41:27;15.60;99.90
18906;DHT22;9585;51.018;4.282;2023-07-31T00:43:59;15.60;99.90
18906;DHT22;9585;51.018;4.282;2023-07-31T00:46:32;15.60;99.90
18906;DHT22;9585;51.018;4.282;2023-07-31T00:49:14;15.70;99.90
18906;DHT22;9585;51.018;4.282;2023-07-31T00:51:42;15.70;99.90
18906;DHT22;9585;51.018;4.282;2023-07-31T00:54:15;15.70;99.90
18906;DHT22;9585;51.018;4.282;2023-07-31T00:56:47;15.70;99.90
18906;DHT22;9585;51.018;4.282;2023-07-31T00:59:21;15.60;99.90
18906;DHT22;9585;51.018;4.282;2023-07-31T01:01:57;15.60;99.90
18906;DHT22;9585;51.018;4.282;2023-07-31T01:04:32;15.70;99.90
18906;DHT22;9585;51.018;4.282;2023-07-31T01:07:09;15.70;99.90
18906;DHT22;9585;51.018;4.282;2023-07-31T01:10:00;15.70;99.90
18906;DHT22;9585;51.018;4.282;2023-07-31T01:12:33;15.70;99.90
18906;DHT22;9585;51.018;4.282;2023-07-31T01:15:05;15.70;99.90
18906;DHT22;9585;51.018;4.282;2023-07-31T01:17:39;15.70;99.90
18906;DHT22;9585;51.018;4.282;2023-07-31T01:20:12;15.70;99.90
18906;DHT22;9585;51.018;4.282;2023-07-31T01:26:05;15.80;99.90
18906;DHT22;9585;51.018;4.282;2023-07-31T01:28:54;15.80;99.90
18906;DHT22;9585;51.018;4.282;2023-07-31T01:31:31;15.70;99.90
18906;DHT22;9585;51.018;4.282;2023-07-31T01:34:01;15.80;99.90
18906;DHT22;9585;51.018;4.282;2023-07-31T01:36:44;15.80;99.90
18906;DHT22;9585;51.018;4.282;2023-07-31T01:39:28;15.90;99.90
18906;DHT22;9585;51.018;4.282;2023-07-31T01:42:01;15.90;99.90
18906;DHT22;9585;51.018;4.282;2023-07-31T01:44:30;15.90;99.90
18906;DHT22;9585;51.018;4.282;2023-07-31T01:47:00;15.90;99.90
18906;DHT22;9585;51.018;4.282;2023-07-31T01:49:46;16.00;99.90
18906;DHT22;9585;51.018;4.282;2023-07-31T01:52:15;16.00;99.90
18906;DHT22;9585;51.018;4.282;2023-07-31T01:54:48;16.00;99.90
18906;DHT22;9585;51.018;4.282;2023-07-31T01:57:22;15.90;99.90
18906;DHT22;9585;51.018;4.282;2023-07-31T02:02:31;16.00;99.90
18906;DHT22;9585;51.018;4.282;2023-07-31T02:05:05;16.10;99.90
18906;DHT22;9585;51.018;4.282;2023-07-31T02:07:34;16.00;99.90
18906;DHT22;9585;51.018;4.282;2023-07-31T02:10:04;16.10;99.90
18906;DHT22;9585;51.018;4.282;2023-07-31T02:12:38;16.00;99.90
18906;DHT22;9585;51.018;4.282;2023-07-31T02:15:06;16.00;99.90
18906;DHT22;9585;51.018;4.282;2023-07-31T02:17:34;16.00;99.90
18906;DHT22;9585;51.018;4.282;2023-07-31T02:20:06;16.10;99.90
18906;DHT22;9585;51.018;4.282;2023-07-31T02:22:34;16.00;99.90
18906;DHT22;9585;51.018;4.282;2023-07-31T02:25:01;16.10;99.90
18906;DHT22;9585;51.018;4.282;2023-07-31T02:27:46;16.10;99.90
18906;DHT22;9585;51.018;4.282;2023-07-31T02:30:13;16.10;99.90
18906;DHT22;9585;51.018;4.282;2023-07-31T02:32:41;16.10;99.90
18906;DHT22;9585;51.018;4.282;2023-07-31T02:35:09;16.00;99.90
18906;DHT22;9585;51.018;4.282;2023-07-31T02:37:41;15.90;99.90
18906;DHT22;9585;51.018;4.282;2023-07-31T02:40:09;15.90;99.90
18906;DHT22;9585;51.018;4.282;2023-07-31T02:42:39;16.00;99.90
18906;DHT22;9585;51.018;4.282;2023-07-31T02:45:08;16.00;99.90
18906;DHT22;9585;51.018;4.282;2023-07-31T02:47:39;16.00;99.90
18906;DHT22;9585;51.018;4.282;2023-07-31T02:50:07;16.00;99.90
18906;DHT22;9585;51.018;4.282;2023-07-31T02:52:37;16.00;99.90
18906;DHT22;9585;51.018;4.282;2023-07-31T02:55:11;16.00;99.90
18906;DHT22;9585;51.018;4.282;2023-07-31T02:57:40;16.10;99.90
18906;DHT22;9585;51.018;4.282;2023-07-31T03:00:13;16.10;99.90
18906;DHT22;9585;51.018;4.282;2023-07-31T03:02:40;16.20;99.90
18906;DHT22;9585;51.018;4.282;2023-07-31T03:05:08;16.10;99.90
18906;DHT22;9585;51.018;4.282;2023-07-31T03:07:39;16.10;99.90
18906;DHT22;9585;51.018;4.282;2023-07-31T03:10:08;16.20;99.90
18906;DHT22;9585;51.018;4.282;2023-07-31T03:12:48;16.20;99.90
18906;DHT22;9585;51.018;4.282;2023-07-31T03:15:15;16.20;99.90
18906;DHT22;9585;51.018;4.282;2023-07-31T03:17:43;16.10;99.90
18906;DHT22;9585;51.018;4.282;2023-07-31T03:20:15;16.10;99.90
18906;DHT22;9585;51.018;4.282;2023-07-31T03:22:52;16.10;99.90
18906;DHT22;9585;51.018;4.282;2023-07-31T03:25:23;16.10;99.90
18906;DHT22;9585;51.018;4.282;2023-07-31T03:27:52;16.00;99.90
18906;DHT22;9585;51.018;4.282;2023-07-31T03:30:22;16.00;99.90
18906;DHT22;9585;51.018;4.282;2023-07-31T03:32:50;16.00;99.90
18906;DHT22;9585;51.018;4.282;2023-07-31T03:35:17;15.90;99.90
18906;DHT22;9585;51.018;4.282;2023-07-31T03:37:58;15.90;99.90
18906;DHT22;9585;51.018;4.282;2023-07-31T03:40:25;15.90;99.90
18906;DHT22;9585;51.018;4.282;2023-07-31T03:42:56;16.00;99.90
18906;DHT22;9585;51.018;4.282;2023-07-31T03:45:24;15.90;99.90
18906;DHT22;9585;51.018;4.282;2023-07-31T03:47:54;16.00;99.90
18906;DHT22;9585;51.018;4.282;2023-07-31T03:50:22;16.00;99.90
18906;DHT22;9585;51.018;4.282;2023-07-31T03:52:50;16.00;99.90
18906;DHT22;9585;51.018;4.282;2023-07-31T03:55:18;16.00;99.90
18906;DHT22;9585;51.018;4.282;2023-07-31T03:57:47;16.00;99.90
18906;DHT22;9585;51.018;4.282;2023-07-31T04:00:28;15.90;99.90
18906;DHT22;9585;51.018;4.282;2023-07-31T04:02:56;15.90;99.90
18906;DHT22;9585;51.018;4.282;2023-07-31T04:05:24;15.80;99.90
18906;DHT22;9585;51.018;4.282;2023-07-31T04:07:54;15.80;99.90
18906;DHT22;9585;51.018;4.282;2023-07-31T04:10:21;15.80;99.90
18906;DHT22;9585;51.018;4.282;2023-07-31T04:12:51;15.70;99.90
18906;DHT22;9585;51.018;4.282;2023-07-31T04:15:18;15.70;99.90
18906;DHT22;9585;51.018;4.282;2023-07-31T04:17:48;15.70;99.90
18906;DHT22;9585;51.018;4.282;2023-07-31T04:20:16;15.70;99.90
18906;DHT22;9585;51.018;4.282;2023-07-31T04:22:43;15.70;99.90
18906;DHT22;9585;51.018;4.282;2023-07-31T04:25:11;15.70;99.90
18906;DHT22;9585;51.018;4.282;2023-07-31T04:27:40;15.70;99.90
18906;DHT22;9585;51.018;4.282;2023-07-31T04:30:08;15.70;99.90
18906;DHT22;9585;51.018;4.282;2023-07-31T04:32:36;15.70;99.90
18906;DHT22;9585;51.018;4.282;2023-07-31T04:35:06;15.70;99.90
18906;DHT22;9585;51.018;4.282;2023-07-31T04:37:36;15.70;99.90
18906;DHT22;9585;51.018;4.282;2023-07-31T04:40:08;15.70;99.90
18906;DHT22;9585;51.018;4.282;2023-07-31T04:42:36;15.70;99.90
18906;DHT22;9585;51.018;4.282;2023-07-31T04:45:04;15.60;99.90
18906;DHT22;9585;51.018;4.282;2023-07-31T04:47:33;15.50;99.90
18906;DHT22;9585;51.018;4.282;2023-07-31T04:50:06;15.50;99.90
18906;DHT22;9585;51.018;4.282;2023-07-31T04:52:40;15.40;99.90
18906;DHT22;9585;51.018;4.282;2023-07-31T04:55:08;15.50;99.90
18906;DHT22;9585;51.018;4.282;2023-07-31T04:57:37;15.50;99.90
18906;DHT22;9585;51.018;4.282;2023-07-31T05:00:09;15.50;99.90
18906;DHT22;9585;51.018;4.282;2023-07-31T05:02:37;15.60;99.90
18906;DHT22;9585;51.018;4.282;2023-07-31T05:05:15;15.50;99.90
18906;DHT22;9585;51.018;4.282;2023-07-31T05:07:43;15.60;99.90
18906;DHT22;9585;51.018;4.282;2023-07-31T05:10:11;15.50;99.90
18906;DHT22;9585;51.018;4.282;2023-07-31T05:12:38;15.60;99.90
18906;DHT22;9585;51.018;4.282;2023-07-31T05:15:07;15.50;99.90
18906;DHT22;9585;51.018;4.282;2023-07-31T05:17:38;15.50;99.90
18906;DHT22;9585;51.018;4.282;2023-07-31T05:20:06;15.40;99.90
18906;DHT22;9585;51.018;4.282;2023-07-31T05:22:36;15.30;99.90
18906;DHT22;9585;51.018;4.282;2023-07-31T05:25:04;15.40;99.90
18906;DHT22;9585;51.018;4.282;2023-07-31T05:27:33;15.40;99.90
18906;DHT22;9585;51.018;4.282;2023-07-31T05:30:00;15.30;99.90
18906;DHT22;9585;51.018;4.282;2023-07-31T05:32:28;15.30;99.90
18906;DHT22;9585;51.018;4.282;2023-07-31T05:34:56;15.30;99.90
18906;DHT22;9585;51.018;4.282;2023-07-31T05:37:24;15.30;99.90
18906;DHT22;9585;51.018;4.282;2023-07-31T05:39:53;15.30;99.90
18906;DHT22;9585;51.018;4.282;2023-07-31T05:42:21;15.30;99.90
18906;DHT22;9585;51.018;4.282;2023-07-31T05:44:49;15.20;99.90
18906;DHT22;9585;51.018;4.282;2023-07-31T05:47:20;15.30;99.90
18906;DHT22;9585;51.018;4.282;2023-07-31T05:49:48;15.40;99.90
18906;DHT22;9585;51.018;4.282;2023-07-31T05:52:19;15.30;99.90
18906;DHT22;9585;51.018;4.282;2023-07-31T05:54:47;15.30;99.90
18906;DHT22;9585;51.018;4.282;2023-07-31T05:57:18;15.40;99.90
18906;DHT22;9585;51.018;4.282;2023-07-31T05:59:46;15.40;99.90
18906;DHT22;9585;51.018;4.282;2023-07-31T06:02:14;15.60;99.90
18906;DHT22;9585;51.018;4.282;2023-07-31T06:04:42;15.60;99.90
18906;DHT22;9585;51.018;4.282;2023-07-31T06:07:10;15.50;99.90
18906;DHT22;9585;51.018;4.282;2023-07-31T06:09:38;15.30;99.90
18906;DHT22;9585;51.018;4.282;2023-07-31T06:12:06;15.40;99.90
18906;DHT22;9585;51.018;4.282;2023-07-31T06:14:36;15.40;99.90
18906;DHT22;9585;51.018;4.282;2023-07-31T06:17:05;15.40;99.90
18906;DHT22;9585;51.018;4.282;2023-07-31T06:19:33;15.40;99.90
18906;DHT22;9585;51.018;4.282;2023-07-31T06:22:01;15.40;99.90
18906;DHT22;9585;51.018;4.282;2023-07-31T06:24:29;15.40;99.90
18906;DHT22;9585;51.018;4.282;2023-07-31T06:26:57;15.60;99.90
18906;DHT22;9585;51.018;4.282;2023-07-31T06:29:29;15.60;99.90
18906;DHT22;9585;51.018;4.282;2023-07-31T06:31:59;15.60;99.90
18906;DHT22;9585;51.018;4.282;2023-07-31T06:34:27;15.70;99.90
18906;DHT22;9585;51.018;4.282;2023-07-31T06:36:55;15.70;99.90
18906;DHT22;9585;51.018;4.282;2023-07-31T06:39:23;15.70;99.90
18906;DHT22;9585;51.018;4.282;2023-07-31T06:41:51;15.80;99.90
18906;DHT22;9585;51.018;4.282;2023-07-31T06:44:19;15.90;99.90
18906;DHT22;9585;51.018;4.282;2023-07-31T06:46:47;15.90;99.90
18906;DHT22;9585;51.018;4.282;2023-07-31T06:49:17;15.90;99.90
18906;DHT22;9585;51.018;4.282;2023-07-31T06:51:45;16.00;99.90
18906;DHT22;9585;51.018;4.282;2023-07-31T06:54:13;16.00;99.90
18906;DHT22;9585;51.018;4.282;2023-07-31T06:56:44;16.00;99.90
18906;DHT22;9585;51.018;4.282;2023-07-31T06:59:11;16.10;99.90
18906;DHT22;9585;51.018;4.282;2023-07-31T07:01:39;16.20;99.90
18906;DHT22;9585;51.018;4.282;2023-07-31T07:04:07;16.50;99.90
18906;DHT22;9585;51.018;4.282;2023-07-31T07:06:36;16.70;99.90
18906;DHT22;9585;51.018;4.282;2023-07-31T07:09:04;16.90;99.90
18906;DHT22;9585;51.018;4.282;2023-07-31T07:11:34;17.00;99.90
18906;DHT22;9585;51.018;4.282;2023-07-31T07:14:06;17.00;99.90
18906;DHT22;9585;51.018;4.282;2023-07-31T07:16:34;16.90;99.90
18906;DHT22;9585;51.018;4.282;2023-07-31T07:19:01;16.80;99.90
18906;DHT22;9585;51.018;4.282;2023-07-31T07:21:29;16.80;99.90
18906;DHT22;9585;51.018;4.282;2023-07-31T07:23:59;16.80;99.90
18906;DHT22;9585;51.018;4.282;2023-07-31T07:26:29;16.80;99.90
18906;DHT22;9585;51.018;4.282;2023-07-31T07:28:57;16.70;99.90
18906;DHT22;9585;51.018;4.282;2023-07-31T07:31:28;16.60;99.90
18906;DHT22;9585;51.018;4.282;2023-07-31T07:33:55;16.50;99.90
18906;DHT22;9585;51.018;4.282;2023-07-31T07:36:23;16.30;99.90
18906;DHT22;9585;51.018;4.282;2023-07-31T07:38:51;16.40;99.90
18906;DHT22;9585;51.018;4.282;2023-07-31T07:41:21;16.50;99.90
18906;DHT22;9585;51.018;4.282;2023-07-31T07:43:50;16.40;99.90
18906;DHT22;9585;51.018;4.282;2023-07-31T07:46:19;16.50;99.90
18906;DHT22;9585;51.018;4.282;2023-07-31T07:48:50;16.60;99.90
18906;DHT22;9585;51.018;4.282;2023-07-31T07:51:21;16.60;99.90
18906;DHT22;9585;51.018;4.282;2023-07-31T07:53:48;16.60;99.90
18906;DHT22;9585;51.018;4.282;2023-07-31T07:56:20;16.60;99.90
18906;DHT22;9585;51.018;4.282;2023-07-31T07:58:49;16.60;99.90
18906;DHT22;9585;51.018;4.282;2023-07-31T08:01:18;16.80;99.90
18906;DHT22;9585;51.018;4.282;2023-07-31T08:03:46;17.00;99.90
18906;DHT22;9585;51.018;4.282;2023-07-31T08:06:15;17.10;99.90
18906;DHT22;9585;51.018;4.282;2023-07-31T08:08:45;17.30;99.90
18906;DHT22;9585;51.018;4.282;2023-07-31T08:11:15;17.40;99.90
18906;DHT22;9585;51.018;4.282;2023-07-31T08:13:47;17.50;99.90
18906;DHT22;9585;51.018;4.282;2023-07-31T08:16:18;17.80;99.90
18906;DHT22;9585;51.018;4.282;2023-07-31T08:18:52;17.80;99.90
18906;DHT22;9585;51.018;4.282;2023-07-31T08:21:21;17.80;99.90
18906;DHT22;9585;51.018;4.282;2023-07-31T08:23:49;17.60;99.90
18906;DHT22;9585;51.018;4.282;2023-07-31T08:26:20;17.50;99.90
18906;DHT22;9585;51.018;4.282;2023-07-31T08:28:49;17.40;99.90
18906;DHT22;9585;51.018;4.282;2023-07-31T08:31:17;17.30;99.90
18906;DHT22;9585;51.018;4.282;2023-07-31T08:33:45;17.20;99.90
18906;DHT22;9585;51.018;4.282;2023-07-31T08:36:13;17.10;99.90
18906;DHT22;9585;51.018;4.282;2023-07-31T08:38:41;17.20;99.90
18906;DHT22;9585;51.018;4.282;2023-07-31T08:41:09;17.30;99.90
18906;DHT22;9585;51.018;4.282;2023-07-31T08:43:38;17.40;99.90
18906;DHT22;9585;51.018;4.282;2023-07-31T08:46:07;17.50;99.90
18906;DHT22;9585;51.018;4.282;2023-07-31T08:48:39;17.70;99.90
18906;DHT22;9585;51.018;4.282;2023-07-31T08:51:10;17.80;99.90
18906;DHT22;9585;51.018;4.282;2023-07-31T08:53:38;17.90;99.90
18906;DHT22;9585;51.018;4.282;2023-07-31T08:56:06;17.80;99.90
18906;DHT22;9585;51.018;4.282;2023-07-31T08:58:35;17.70;99.90
18906;DHT22;9585;51.018;4.282;2023-07-31T09:01:09;17.60;99.90
18906;DHT22;9585;51.018;4.282;2023-07-31T09:03:42;18.00;99.90
18906;DHT22;9585;51.018;4.282;2023-07-31T09:06:13;18.40;99.90
18906;DHT22;9585;51.018;4.282;2023-07-31T09:08:42;18.80;99.90
18906;DHT22;9585;51.018;4.282;2023-07-31T09:11:10;19.10;99.90
18906;DHT22;9585;51.018;4.282;2023-07-31T09:13:40;19.30;99.90
18906;DHT22;9585;51.018;4.282;2023-07-31T09:16:11;19.40;99.90
18906;DHT22;9585;51.018;4.282;2023-07-31T09:18:53;19.40;99.90
18906;DHT22;9585;51.018;4.282;2023-07-31T09:21:23;19.30;99.90
18906;DHT22;9585;51.018;4.282;2023-07-31T09:23:51;18.70;99.90
18906;DHT22;9585;51.018;4.282;2023-07-31T09:26:30;18.50;99.90
18906;DHT22;9585;51.018;4.282;2023-07-31T09:28:58;18.40;99.90
18906;DHT22;9585;51.018;4.282;2023-07-31T09:31:38;18.00;99.90
18906;DHT22;9585;51.018;4.282;2023-07-31T09:34:07;17.90;99.90
18906;DHT22;9585;51.018;4.282;2023-07-31T09:36:41;17.90;99.90
18906;DHT22;9585;51.018;4.282;2023-07-31T09:39:09;18.00;99.90
18906;DHT22;9585;51.018;4.282;2023-07-31T09:41:41;18.10;99.90
18906;DHT22;9585;51.018;4.282;2023-07-31T09:44:10;18.10;99.90
18906;DHT22;9585;51.018;4.282;2023-07-31T09:46:42;18.00;99.90
18906;DHT22;9585;51.018;4.282;2023-07-31T09:49:11;17.90;99.90
18906;DHT22;9585;51.018;4.282;2023-07-31T09:51:40;17.70;99.90
18906;DHT22;9585;51.018;4.282;2023-07-31T09:54:12;17.80;99.90
18906;DHT22;9585;51.018;4.282;2023-07-31T09:56:43;17.90;99.90
18906;DHT22;9585;51.018;4.282;2023-07-31T09:59:16;17.80;99.90
18906;DHT22;9585;51.018;4.282;2023-07-31T10:01:46;17.50;99.90
18906;DHT22;9585;51.018;4.282;2023-07-31T10:04:20;17.30;99.90
18906;DHT22;9585;51.018;4.282;2023-07-31T10:06:54;17.30;99.90
18906;DHT22;9585;51.018;4.282;2023-07-31T10:09:25;17.30;99.90
18906;DHT22;9585;51.018;4.282;2023-07-31T10:12:01;17.40;99.90
18906;DHT22;9585;51.018;4.282;2023-07-31T10:14:30;17.40;99.90
18906;DHT22;9585;51.018;4.282;2023-07-31T10:17:05;17.40;99.90
18906;DHT22;9585;51.018;4.282;2023-07-31T10:19:34;17.40;99.90
18906;DHT22;9585;51.018;4.282;2023-07-31T10:22:03;17.60;99.90
18906;DHT22;9585;51.018;4.282;2023-07-31T10:24:32;17.70;99.90
18906;DHT22;9585;51.018;4.282;2023-07-31T10:27:02;17.60;99.90
18906;DHT22;9585;51.018;4.282;2023-07-31T10:29:30;17.60;99.90
18906;DHT22;9585;51.018;4.282;2023-07-31T10:32:08;17.60;99.90
18906;DHT22;9585;51.018;4.282;2023-07-31T10:34:39;17.90;99.90
18906;DHT22;9585;51.018;4.282;2023-07-31T10:37:21;17.70;99.90
18906;DHT22;9585;51.018;4.282;2023-07-31T10:40:00;17.70;99.90
18906;DHT22;9585;51.018;4.282;2023-07-31T10:42:30;17.80;99.90
18906;DHT22;9585;51.018;4.282;2023-07-31T10:44:59;17.70;99.90
18906;DHT22;9585;51.018;4.282;2023-07-31T10:47:29;17.70;99.90
18906;DHT22;9585;51.018;4.282;2023-07-31T10:50:18;17.70;99.90
18906;DHT22;9585;51.018;4.282;2023-07-31T10:52:51;17.90;99.90
18906;DHT22;9585;51.018;4.282;2023-07-31T10:55:30;18.10;99.90
18906;DHT22;9585;51.018;4.282;2023-07-31T10:58:06;18.20;99.90
18906;DHT22;9585;51.018;4.282;2023-07-31T11:00:40;18.40;99.90
18906;DHT22;9585;51.018;4.282;2023-07-31T11:03:11;18.40;99.90
18906;DHT22;9585;51.018;4.282;2023-07-31T11:05:49;18.50;99.90
18906;DHT22;9585;51.018;4.282;2023-07-31T11:08:29;18.60;99.90
18906;DHT22;9585;51.018;4.282;2023-07-31T11:11:08;18.50;99.90
18906;DHT22;9585;51.018;4.282;2023-07-31T11:13:41;18.50;99.90
18906;DHT22;9585;51.018;4.282;2023-07-31T11:16:12;18.60;99.90
18906;DHT22;9585;51.018;4.282;2023-07-31T11:18:44;18.70;99.90
18906;DHT22;9585;51.018;4.282;2023-07-31T11:21:17;18.80;99.90
18906;DHT22;9585;51.018;4.282;2023-07-31T11:23:47;18.80;99.90
18906;DHT22;9585;51.018;4.282;2023-07-31T11:26:16;18.90;99.90
18906;DHT22;9585;51.018;4.282;2023-07-31T11:28:48;18.90;99.90
18906;DHT22;9585;51.018;4.282;2023-07-31T11:31:16;18.90;99.90
18906;DHT22;9585;51.018;4.282;2023-07-31T11:33:50;18.90;99.90
18906;DHT22;9585;51.018;4.282;2023-07-31T11:36:19;19.10;99.90
18906;DHT22;9585;51.018;4.282;2023-07-31T11:38:47;19.20;99.90
18906;DHT22;9585;51.018;4.282;2023-07-31T11:41:21;19.40;99.90
18906;DHT22;9585;51.018;4.282;2023-07-31T11:43:49;19.30;99.90
18906;DHT22;9585;51.018;4.282;2023-07-31T11:46:29;19.30;99.90
18906;DHT22;9585;51.018;4.282;2023-07-31T11:49:02;19.10;99.90
18906;DHT22;9585;51.018;4.282;2023-07-31T11:51:30;19.20;99.90
18906;DHT22;9585;51.018;4.282;2023-07-31T11:54:02;19.10;99.90
18906;DHT22;9585;51.018;4.282;2023-07-31T11:56:30;18.90;99.90
18906;DHT22;9585;51.018;4.282;2023-07-31T11:59:01;18.70;99.90
18906;DHT22;9585;51.018;4.282;2023-07-31T12:01:36;18.70;99.90
18906;DHT22;9585;51.018;4.282;2023-07-31T12:04:06;18.70;99.90
18906;DHT22;9585;51.018;4.282;2023-07-31T12:06:35;18.90;99.90
18906;DHT22;9585;51.018;4.282;2023-07-31T12:09:04;18.90;99.90
18906;DHT22;9585;51.018;4.282;2023-07-31T12:11:43;19.00;99.90
18906;DHT22;9585;51.018;4.282;2023-07-31T12:14:24;19.30;99.90
18906;DHT22;9585;51.018;4.282;2023-07-31T12:16:54;19.40;99.90
18906;DHT22;9585;51.018;4.282;2023-07-31T12:19:25;19.40;99.90
18906;DHT22;9585;51.018;4.282;2023-07-31T12:21:55;19.40;99.90
18906;DHT22;9585;51.018;4.282;2023-07-31T12:24:23;19.40;99.90
18906;DHT22;9585;51.018;4.282;2023-07-31T12:26:53;19.40;99.90
18906;DHT22;9585;51.018;4.282;2023-07-31T12:29:32;19.40;99.90
18906;DHT22;9585;51.018;4.282;2023-07-31T12:32:02;19.40;99.90
18906;DHT22;9585;51.018;4.282;2023-07-31T12:34:43;19.50;99.90
18906;DHT22;9585;51.018;4.282;2023-07-31T12:37:11;19.40;99.90
18906;DHT22;9585;51.018;4.282;2023-07-31T12:39:40;19.30;99.90
18906;DHT22;9585;51.018;4.282;2023-07-31T12:42:09;19.30;99.90
18906;DHT22;9585;51.018;4.282;2023-07-31T12:44:38;19.50;99.90
18906;DHT22;9585;51.018;4.282;2023-07-31T12:47:06;19.60;99.90
18906;DHT22;9585;51.018;4.282;2023-07-31T12:49:35;19.70;99.90
18906;DHT22;9585;51.018;4.282;2023-07-31T12:52:04;19.50;99.90
18906;DHT22;9585;51.018;4.282;2023-07-31T12:54:32;19.50;99.90
18906;DHT22;9585;51.018;4.282;2023-07-31T12:57:01;19.40;99.90
18906;DHT22;9585;51.018;4.282;2023-07-31T12:59:29;19.10;99.90
18906;DHT22;9585;51.018;4.282;2023-07-31T13:01:57;19.00;99.90
18906;DHT22;9585;51.018;4.282;2023-07-31T13:04:25;18.90;99.90
18906;DHT22;9585;51.018;4.282;2023-07-31T13:06:57;18.80;99.90
18906;DHT22;9585;51.018;4.282;2023-07-31T13:09:26;18.60;99.90
18906;DHT22;9585;51.018;4.282;2023-07-31T13:11:56;18.50;99.90
18906;DHT22;9585;51.018;4.282;2023-07-31T13:14:27;18.50;99.90
18906;DHT22;9585;51.018;4.282;2023-07-31T13:16:57;18.40;99.90
18906;DHT22;9585;51.018;4.282;2023-07-31T13:19:25;18.20;99.90
18906;DHT22;9585;51.018;4.282;2023-07-31T13:21:55;18.00;99.90
18906;DHT22;9585;51.018;4.282;2023-07-31T13:24:23;17.70;99.90
18906;DHT22;9585;51.018;4.282;2023-07-31T13:26:51;17.60;99.90
18906;DHT22;9585;51.018;4.282;2023-07-31T13:29:19;17.60;99.90
18906;DHT22;9585;51.018;4.282;2023-07-31T13:31:47;17.70;99.90
18906;DHT22;9585;51.018;4.282;2023-07-31T13:34:15;17.70;99.90
18906;DHT22;9585;51.018;4.282;2023-07-31T13:36:47;17.60;99.90
18906;DHT22;9585;51.018;4.282;2023-07-31T13:39:17;17.60;99.90
18906;DHT22;9585;51.018;4.282;2023-07-31T13:41:44;17.50;99.90
18906;DHT22;9585;51.018;4.282;2023-07-31T13:44:13;17.50;99.90
18906;DHT22;9585;51.018;4.282;2023-07-31T13:46:40;17.50;99.90
18906;DHT22;9585;51.018;4.282;2023-07-31T13:49:14;17.50;99.90
18906;DHT22;9585;51.018;4.282;2023-07-31T13:51:42;17.50;99.90
18906;DHT22;9585;51.018;4.282;2023-07-31T13:54:10;17.40;99.90
18906;DHT22;9585;51.018;4.282;2023-07-31T13:56:41;17.30;99.90
18906;DHT22;9585;51.018;4.282;2023-07-31T13:59:09;17.20;99.90
18906;DHT22;9585;51.018;4.282;2023-07-31T14:01:38;17.10;99.90
18906;DHT22;9585;51.018;4.282;2023-07-31T14:04:06;17.00;99.90
18906;DHT22;9585;51.018;4.282;2023-07-31T14:06:35;17.00;99.90
18906;DHT22;9585;51.018;4.282;2023-07-31T14:09:04;16.90;99.90
18906;DHT22;9585;51.018;4.282;2023-07-31T14:11:32;16.80;99.90
18906;DHT22;9585;51.018;4.282;2023-07-31T14:14:01;16.80;99.90
18906;DHT22;9585;51.018;4.282;2023-07-31T14:16:32;16.70;99.90
18906;DHT22;9585;51.018;4.282;2023-07-31T14:19:02;16.70;99.90
18906;DHT22;9585;51.018;4.282;2023-07-31T14:21:30;16.80;99.90
18906;DHT22;9585;51.018;4.282;2023-07-31T14:23:59;16.90;99.90
18906;DHT22;9585;51.018;4.282;2023-07-31T14:26:32;16.80;99.90
18906;DHT22;9585;51.018;4.282;2023-07-31T14:29:02;16.90;99.90
18906;DHT22;9585;51.018;4.282;2023-07-31T14:31:30;17.00;99.90
18906;DHT22;9585;51.018;4.282;2023-07-31T14:33:58;17.10;99.90
18906;DHT22;9585;51.018;4.282;2023-07-31T14:36:26;17.10;99.90
18906;DHT22;9585;51.018;4.282;2023-07-31T14:38:56;17.10;99.90
18906;DHT22;9585;51.018;4.282;2023-07-31T14:41:24;17.10;99.90
18906;DHT22;9585;51.018;4.282;2023-07-31T14:43:51;17.10;99.90
18906;DHT22;9585;51.018;4.282;2023-07-31T14:46:26;16.90;99.90
18906;DHT22;9585;51.018;4.282;2023-07-31T14:48:55;17.00;99.90
18906;DHT22;9585;51.018;4.282;2023-07-31T14:51:23;17.00;99.90
18906;DHT22;9585;51.018;4.282;2023-07-31T14:53:50;17.10;99.90
18906;DHT22;9585;51.018;4.282;2023-07-31T14:56:19;16.90;99.90
18906;DHT22;9585;51.018;4.282;2023-07-31T14:58:46;16.90;99.90
18906;DHT22;9585;51.018;4.282;2023-07-31T15:01:14;16.90;99.90
18906;DHT22;9585;51.018;4.282;2023-07-31T15:03:44;16.90;99.90
18906;DHT22;9585;51.018;4.282;2023-07-31T15:06:14;16.80;99.90
18906;DHT22;9585;51.018;4.282;2023-07-31T15:08:42;16.80;99.90
18906;DHT22;9585;51.018;4.282;2023-07-31T15:11:10;16.80;99.90
18906;DHT22;9585;51.018;4.282;2023-07-31T15:13:38;16.80;99.90
18906;DHT22;9585;51.018;4.282;2023-07-31T15:16:05;16.80;99.90
18906;DHT22;9585;51.018;4.282;2023-07-31T15:18:33;16.80;99.90
18906;DHT22;9585;51.018;4.282;2023-07-31T15:21:03;16.70;99.90
18906;DHT22;9585;51.018;4.282;2023-07-31T15:23:34;16.80;99.90
18906;DHT22;9585;51.018;4.282;2023-07-31T15:26:04;16.80;99.90
18906;DHT22;9585;51.018;4.282;2023-07-31T15:28:32;16.80;99.90
18906;DHT22;9585;51.018;4.282;2023-07-31T15:31:01;16.90;99.90
18906;DHT22;9585;51.018;4.282;2023-07-31T15:33:29;16.80;99.90
18906;DHT22;9585;51.018;4.282;2023-07-31T15:35:57;16.70;99.90
18906;DHT22;9585;51.018;4.282;2023-07-31T15:38:30;16.80;99.90
18906;DHT22;9585;51.018;4.282;2023-07-31T15:40:58;16.80;99.90
18906;DHT22;9585;51.018;4.282;2023-07-31T15:43:28;16.80;99.90
18906;DHT22;9585;51.018;4.282;2023-07-31T15:46:01;16.90;99.90
18906;DHT22;9585;51.018;4.282;2023-07-31T15:48:29;16.70;99.90
18906;DHT22;9585;51.018;4.282;2023-07-31T15:50:57;16.70;99.90
18906;DHT22;9585;51.018;4.282;2023-07-31T15:53:25;16.70;99.90
18906;DHT22;9585;51.018;4.282;2023-07-31T15:55:55;16.70;99.90
18906;DHT22;9585;51.018;4.282;2023-07-31T15:58:26;16.70;99.90
18906;DHT22;9585;51.018;4.282;2023-07-31T16:00:55;16.80;99.90
18906;DHT22;9585;51.018;4.282;2023-07-31T16:03:23;17.00;99.90
18906;DHT22;9585;51.018;4.282;2023-07-31T16:05:51;16.90;99.90
18906;DHT22;9585;51.018;4.282;2023-07-31T16:08:18;17.00;99.90
18906;DHT22;9585;51.018;4.282;2023-07-31T16:10:49;16.90;99.90